sensor_id;sensor_type;location;lat;lon;timestamp;temperature;humidity
5128;DHT22;2582;48.770;9.190;2022-12-07T00:02:17;6.10;99.90
5128;DHT22;2582;48.770;9.190;2022-12-07T00:04:43;5.90;99.90
5128;DHT22;2582;48.770;9.190;2022-12-07T00:07:09;5.90;99.90
5128;DHT22;2582;48.770;9.190;2022-12-07T00:09:34;6.00;99.90
5128;DHT22;2582;48.770;9.190;2022-12-07T00:12:00;6.20;99.90
5128;DHT22;2582;48.770;9.190;2022-12-07T00:14:25;6.30;99.90
5128;DHT22;2582;48.770;9.190;2022-12-07T00:16:51;6.10;99.90
5128;DHT22;2582;48.770;9.190;2022-12-07T00:19:17;6.20;99.90
5128;DHT22;2582;48.770;9.190;2022-12-07T00:21:42;6.10;99.90
5128;DHT22;2582;48.770;9.190;2022-12-07T00:24:09;6.10;99.90
5128;DHT22;2582;48.770;9.190;2022-12-07T00:26:37;6.00;99.90
5128;DHT22;2582;48.770;9.190;2022-12-07T00:29:15;6.00;99.90
5128;DHT22;2582;48.770;9.190;2022-12-07T00:31:41;5.90;99.90
5128;DHT22;2582;48.770;9.190;2022-12-07T00:34:11;5.80;99.90
5128;DHT22;2582;48.770;9.190;2022-12-07T00:36:37;5.90;99.90
5128;DHT22;2582;48.770;9.190;2022-12-07T00:39:03;6.00;99.90
5128;DHT22;2582;48.770;9.190;2022-12-07T00:41:28;6.10;99.90
5128;DHT22;2582;48.770;9.190;2022-12-07T00:43:54;5.80;99.90
5128;DHT22;2582;48.770;9.190;2022-12-07T00:46:21;5.70;99.90
5128;DHT22;2582;48.770;9.190;2022-12-07T00:48:47;5.80;99.90
5128;DHT22;2582;48.770;9.190;2022-12-07T00:51:15;5.80;99.90
5128;DHT22;2582;48.770;9.190;2022-12-07T00:53:41;5.80;99.90
5128;DHT22;2582;48.770;9.190;2022-12-07T00:56:09;5.90;99.90
5128;DHT22;2582;48.770;9.190;2022-12-07T00:58:35;6.00;99.90
5128;DHT22;2582;48.770;9.190;2022-12-07T01:01:01;5.90;99.90
5128;DHT22;2582;48.770;9.190;2022-12-07T01:03:27;5.90;99.90
5128;DHT22;2582;48.770;9.190;2022-12-07T01:05:55;6.00;99.90
5128;DHT22;2582;48.770;9.190;2022-12-07T01:08:21;6.10;99.90
5128;DHT22;2582;48.770;9.190;2022-12-07T01:10:47;6.00;99.90
5128;DHT22;2582;48.770;9.190;2022-12-07T01:13:13;5.90;99.90
5128;DHT22;2582;48.770;9.190;2022-12-07T01:15:40;5.80;99.90
5128;DHT22;2582;48.770;9.190;2022-12-07T01:18:05;5.90;99.90
5128;DHT22;2582;48.770;9.190;2022-12-07T01:20:31;6.00;99.90
5128;DHT22;2582;48.770;9.190;2022-12-07T01:22:56;6.20;99.90
5128;DHT22;2582;48.770;9.190;2022-12-07T01:25:22;6.30;99.90
5128;DHT22;2582;48.770;9.190;2022-12-07T01:27:48;6.20;99.90
5128;DHT22;2582;48.770;9.190;2022-12-07T01:30:13;6.10;99.90
5128;DHT22;2582;48.770;9.190;2022-12-07T01:32:39;6.10;99.90
5128;DHT22;2582;48.770;9.190;2022-12-07T01:35:05;6.10;99.90
5128;DHT22;2582;48.770;9.190;2022-12-07T01:37:38;6.10;99.90
5128;DHT22;2582;48.770;9.190;2022-12-07T01:40:06;6.10;99.90
5128;DHT22;2582;48.770;9.190;2022-12-07T01:42:32;6.20;99.90
5128;DHT22;2582;48.770;9.190;2022-12-07T01:47:46;6.00;99.90
5128;DHT22;2582;48.770;9.190;2022-12-07T01:50:12;6.00;99.90
5128;DHT22;2582;48.770;9.190;2022-12-07T01:52:39;6.10;99.90
5128;DHT22;2582;48.770;9.190;2022-12-07T01:55:09;6.20;99.90
5128;DHT22;2582;48.770;9.190;2022-12-07T01:57:41;6.20;99.90
5128;DHT22;2582;48.770;9.190;2022-12-07T02:00:10;6.00;99.90
5128;DHT22;2582;48.770;9.190;2022-12-07T02:05:18;6.20;99.90
5128;DHT22;2582;48.770;9.190;2022-12-07T02:07:44;6.20;99.90
5128;DHT22;2582;48.770;9.190;2022-12-07T02:10:20;6.30;99.90
5128;DHT22;2582;48.770;9.190;2022-12-07T02:12:50;6.30;99.90
5128;DHT22;2582;48.770;9.190;2022-12-07T02:15:18;6.30;99.90
5128;DHT22;2582;48.770;9.190;2022-12-07T02:18:09;6.30;99.90
5128;DHT22;2582;48.770;9.190;2022-12-07T02:29:33;6.10;99.90
5128;DHT22;2582;48.770;9.190;2022-12-07T02:32:19;6.10;99.90
5128;DHT22;2582;48.770;9.190;2022-12-07T02:40:39;6.20;99.90
5128;DHT22;2582;48.770;9.190;2022-12-07T02:43:32;6.00;99.90
5128;DHT22;2582;48.770;9.190;2022-12-07T02:46:09;6.00;99.90
5128;DHT22;2582;48.770;9.190;2022-12-07T02:48:37;6.20;99.90
5128;DHT22;2582;48.770;9.190;2022-12-07T02:51:03;5.90;99.90
5128;DHT22;2582;48.770;9.190;2022-12-07T03:02:24;6.40;99.90
5128;DHT22;2582;48.770;9.190;2022-12-07T03:07:01;6.30;99.90
5128;DHT22;2582;48.770;9.190;2022-12-07T03:09:37;6.40;99.90
5128;DHT22;2582;48.770;9.190;2022-12-07T03:12:20;6.40;99.90
5128;DHT22;2582;48.770;9.190;2022-12-07T03:14:59;6.40;99.90
5128;DHT22;2582;48.770;9.190;2022-12-07T03:17:28;6.50;99.90
5128;DHT22;2582;48.770;9.190;2022-12-07T03:19:58;6.50;99.90
5128;DHT22;2582;48.770;9.190;2022-12-07T03:22:28;6.50;99.90
5128;DHT22;2582;48.770;9.190;2022-12-07T03:24:59;6.50;99.90
5128;DHT22;2582;48.770;9.190;2022-12-07T03:27:44;6.50;99.90
5128;DHT22;2582;48.770;9.190;2022-12-07T03:30:20;6.50;99.90
5128;DHT22;2582;48.770;9.190;2022-12-07T03:33:11;6.50;99.90
5128;DHT22;2582;48.770;9.190;2022-12-07T03:35:49;6.60;99.90
5128;DHT22;2582;48.770;9.190;2022-12-07T03:38:23;6.70;99.90
5128;DHT22;2582;48.770;9.190;2022-12-07T03:40:58;6.60;99.90
5128;DHT22;2582;48.770;9.190;2022-12-07T03:43:28;6.70;99.90
5128;DHT22;2582;48.770;9.190;2022-12-07T03:48:57;6.50;99.90
5128;DHT22;2582;48.770;9.190;2022-12-07T03:51:31;6.50;99.90
5128;DHT22;2582;48.770;9.190;2022-12-07T03:54:25;6.50;99.90
5128;DHT22;2582;48.770;9.190;2022-12-07T03:56:52;6.40;99.90
5128;DHT22;2582;48.770;9.190;2022-12-07T03:59:18;6.50;99.90
5128;DHT22;2582;48.770;9.190;2022-12-07T04:01:48;6.50;99.90
5128;DHT22;2582;48.770;9.190;2022-12-07T04:04:17;6.40;99.90
5128;DHT22;2582;48.770;9.190;2022-12-07T04:06:42;6.40;99.90
5128;DHT22;2582;48.770;9.190;2022-12-07T04:09:08;6.40;99.90
5128;DHT22;2582;48.770;9.190;2022-12-07T04:11:33;6.30;99.90
5128;DHT22;2582;48.770;9.190;2022-12-07T04:13:59;6.40;99.90
5128;DHT22;2582;48.770;9.190;2022-12-07T04:16:51;6.40;99.90
5128;DHT22;2582;48.770;9.190;2022-12-07T04:19:19;6.40;99.90
5128;DHT22;2582;48.770;9.190;2022-12-07T04:21:46;6.30;99.90
5128;DHT22;2582;48.770;9.190;2022-12-07T04:24:13;5.80;99.90
5128;DHT22;2582;48.770;9.190;2022-12-07T04:26:39;5.70;99.90
5128;DHT22;2582;48.770;9.190;2022-12-07T04:29:04;5.80;99.90
5128;DHT22;2582;48.770;9.190;2022-12-07T04:31:30;5.90;99.90
5128;DHT22;2582;48.770;9.190;2022-12-07T04:33:55;6.00;99.90
5128;DHT22;2582;48.770;9.190;2022-12-07T04:36:21;5.90;99.90
5128;DHT22;2582;48.770;9.190;2022-12-07T04:38:47;6.00;99.90
5128;DHT22;2582;48.770;9.190;2022-12-07T04:41:12;5.90;99.90
5128;DHT22;2582;48.770;9.190;2022-12-07T04:43:38;5.80;99.90
5128;DHT22;2582;48.770;9.190;2022-12-07T04:46:04;5.70;99.90
5128;DHT22;2582;48.770;9.190;2022-12-07T04:48:30;5.70;99.90
5128;DHT22;2582;48.770;9.190;2022-12-07T04:50:56;5.60;99.90
5128;DHT22;2582;48.770;9.190;2022-12-07T04:53:22;5.80;99.90
5128;DHT22;2582;48.770;9.190;2022-12-07T04:55:48;5.90;99.90
5128;DHT22;2582;48.770;9.190;2022-12-07T04:58:13;5.90;99.90
5128;DHT22;2582;48.770;9.190;2022-12-07T05:00:39;5.90;99.90
5128;DHT22;2582;48.770;9.190;2022-12-07T05:03:05;5.90;99.90
5128;DHT22;2582;48.770;9.190;2022-12-07T05:05:31;5.70;99.90
5128;DHT22;2582;48.770;9.190;2022-12-07T05:07:57;5.60;99.90
5128;DHT22;2582;48.770;9.190;2022-12-07T05:10:22;5.70;99.90
5128;DHT22;2582;48.770;9.190;2022-12-07T05:12:48;5.80;99.90
5128;DHT22;2582;48.770;9.190;2022-12-07T05:15:15;5.90;99.90
5128;DHT22;2582;48.770;9.190;2022-12-07T05:17:40;6.00;99.90
5128;DHT22;2582;48.770;9.190;2022-12-07T05:20:07;6.10;99.90
5128;DHT22;2582;48.770;9.190;2022-12-07T05:22:32;5.90;99.90
5128;DHT22;2582;48.770;9.190;2022-12-07T05:24:58;5.90;99.90
5128;DHT22;2582;48.770;9.190;2022-12-07T05:27:23;5.90;99.90
5128;DHT22;2582;48.770;9.190;2022-12-07T05:29:52;5.80;99.90
5128;DHT22;2582;48.770;9.190;2022-12-07T05:32:18;5.80;99.90
5128;DHT22;2582;48.770;9.190;2022-12-07T05:34:43;5.90;99.90
5128;DHT22;2582;48.770;9.190;2022-12-07T05:37:09;5.80;99.90
5128;DHT22;2582;48.770;9.190;2022-12-07T05:39:34;5.70;99.90
5128;DHT22;2582;48.770;9.190;2022-12-07T05:42:00;5.70;99.90
5128;DHT22;2582;48.770;9.190;2022-12-07T05:44:38;5.60;99.90
5128;DHT22;2582;48.770;9.190;2022-12-07T05:47:04;5.50;99.90
5128;DHT22;2582;48.770;9.190;2022-12-07T05:49:30;5.40;99.90
5128;DHT22;2582;48.770;9.190;2022-12-07T05:51:55;5.40;99.90
5128;DHT22;2582;48.770;9.190;2022-12-07T05:54:21;5.10;99.90
5128;DHT22;2582;48.770;9.190;2022-12-07T05:56:47;5.10;99.90
5128;DHT22;2582;48.770;9.190;2022-12-07T05:59:12;5.20;99.90
5128;DHT22;2582;48.770;9.190;2022-12-07T06:02:04;5.30;99.90
5128;DHT22;2582;48.770;9.190;2022-12-07T06:04:32;5.40;99.90
5128;DHT22;2582;48.770;9.190;2022-12-07T06:06:58;5.50;99.90
5128;DHT22;2582;48.770;9.190;2022-12-07T06:09:25;5.50;99.90
5128;DHT22;2582;48.770;9.190;2022-12-07T06:11:51;5.50;99.90
5128;DHT22;2582;48.770;9.190;2022-12-07T06:14:36;5.50;99.90
5128;DHT22;2582;48.770;9.190;2022-12-07T06:17:01;5.30;99.90
5128;DHT22;2582;48.770;9.190;2022-12-07T06:19:27;5.30;99.90
5128;DHT22;2582;48.770;9.190;2022-12-07T06:21:53;5.20;99.90
5128;DHT22;2582;48.770;9.190;2022-12-07T06:24:19;5.20;99.90
5128;DHT22;2582;48.770;9.190;2022-12-07T06:26:45;5.40;99.90
5128;DHT22;2582;48.770;9.190;2022-12-07T06:29:11;5.40;99.90
5128;DHT22;2582;48.770;9.190;2022-12-07T06:31:37;5.30;99.90
5128;DHT22;2582;48.770;9.190;2022-12-07T06:34:10;5.10;99.90
5128;DHT22;2582;48.770;9.190;2022-12-07T06:36:36;5.20;99.90
5128;DHT22;2582;48.770;9.190;2022-12-07T06:39:03;5.30;99.90
5128;DHT22;2582;48.770;9.190;2022-12-07T06:41:29;5.20;99.90
5128;DHT22;2582;48.770;9.190;2022-12-07T06:43:54;5.20;99.90
5128;DHT22;2582;48.770;9.190;2022-12-07T06:46:20;5.20;99.90
5128;DHT22;2582;48.770;9.190;2022-12-07T06:48:46;5.20;99.90
5128;DHT22;2582;48.770;9.190;2022-12-07T06:51:11;5.10;99.90
5128;DHT22;2582;48.770;9.190;2022-12-07T06:53:37;5.10;99.90
5128;DHT22;2582;48.770;9.190;2022-12-07T06:56:04;5.10;99.90
5128;DHT22;2582;48.770;9.190;2022-12-07T06:58:29;5.20;99.90
5128;DHT22;2582;48.770;9.190;2022-12-07T07:00:55;5.30;99.90
5128;DHT22;2582;48.770;9.190;2022-12-07T07:03:21;5.50;99.90
5128;DHT22;2582;48.770;9.190;2022-12-07T07:05:47;5.60;99.90
5128;DHT22;2582;48.770;9.190;2022-12-07T07:08:13;5.60;99.90
5128;DHT22;2582;48.770;9.190;2022-12-07T07:10:39;5.50;99.90
5128;DHT22;2582;48.770;9.190;2022-12-07T07:13:05;5.50;99.90
5128;DHT22;2582;48.770;9.190;2022-12-07T07:15:31;5.50;99.90
5128;DHT22;2582;48.770;9.190;2022-12-07T07:17:57;5.50;99.90
5128;DHT22;2582;48.770;9.190;2022-12-07T07:20:22;5.50;99.90
5128;DHT22;2582;48.770;9.190;2022-12-07T07:22:48;5.60;99.90
5128;DHT22;2582;48.770;9.190;2022-12-07T07:25:14;5.60;99.90
5128;DHT22;2582;48.770;9.190;2022-12-07T07:27:41;5.70;99.90
5128;DHT22;2582;48.770;9.190;2022-12-07T07:30:07;5.80;99.90
5128;DHT22;2582;48.770;9.190;2022-12-07T07:32:33;5.80;99.90
5128;DHT22;2582;48.770;9.190;2022-12-07T07:34:59;5.90;99.90
5128;DHT22;2582;48.770;9.190;2022-12-07T07:37:25;5.90;99.90
5128;DHT22;2582;48.770;9.190;2022-12-07T07:39:50;5.90;99.90
5128;DHT22;2582;48.770;9.190;2022-12-07T07:42:16;5.90;99.90
5128;DHT22;2582;48.770;9.190;2022-12-07T07:44:41;5.80;99.90
5128;DHT22;2582;48.770;9.190;2022-12-07T07:47:07;5.70;99.90
5128;DHT22;2582;48.770;9.190;2022-12-07T07:49:32;5.80;99.90
5128;DHT22;2582;48.770;9.190;2022-12-07T07:51:58;5.90;99.90
5128;DHT22;2582;48.770;9.190;2022-12-07T07:54:24;5.80;99.90
5128;DHT22;2582;48.770;9.190;2022-12-07T07:56:49;5.80;99.90
5128;DHT22;2582;48.770;9.190;2022-12-07T07:59:15;5.90;99.90
5128;DHT22;2582;48.770;9.190;2022-12-07T08:01:41;6.10;99.90
5128;DHT22;2582;48.770;9.190;2022-12-07T08:04:06;6.00;99.90
5128;DHT22;2582;48.770;9.190;2022-12-07T08:06:32;6.00;99.90
5128;DHT22;2582;48.770;9.190;2022-12-07T08:08:58;6.20;99.90
5128;DHT22;2582;48.770;9.190;2022-12-07T08:11:24;6.20;99.90
5128;DHT22;2582;48.770;9.190;2022-12-07T08:13:50;6.20;99.90
5128;DHT22;2582;48.770;9.190;2022-12-07T08:16:16;6.30;99.90
5128;DHT22;2582;48.770;9.190;2022-12-07T08:18:43;6.40;99.90
5128;DHT22;2582;48.770;9.190;2022-12-07T08:21:14;6.30;99.90
5128;DHT22;2582;48.770;9.190;2022-12-07T08:23:40;6.20;99.90
5128;DHT22;2582;48.770;9.190;2022-12-07T08:26:08;6.30;99.90
5128;DHT22;2582;48.770;9.190;2022-12-07T08:28:34;6.40;99.90
5128;DHT22;2582;48.770;9.190;2022-12-07T08:31:05;6.60;99.90
5128;DHT22;2582;48.770;9.190;2022-12-07T08:33:32;6.70;99.90
5128;DHT22;2582;48.770;9.190;2022-12-07T08:36:06;6.80;99.90
5128;DHT22;2582;48.770;9.190;2022-12-07T08:38:34;6.80;99.90
5128;DHT22;2582;48.770;9.190;2022-12-07T08:41:00;6.80;99.90
5128;DHT22;2582;48.770;9.190;2022-12-07T08:43:25;6.60;99.90
5128;DHT22;2582;48.770;9.190;2022-12-07T08:49:05;6.80;99.90
5128;DHT22;2582;48.770;9.190;2022-12-07T08:51:32;6.60;99.90
5128;DHT22;2582;48.770;9.190;2022-12-07T08:53:59;6.50;99.90
5128;DHT22;2582;48.770;9.190;2022-12-07T08:56:25;6.30;99.90
5128;DHT22;2582;48.770;9.190;2022-12-07T08:58:50;6.50;99.90
5128;DHT22;2582;48.770;9.190;2022-12-07T09:01:17;6.50;99.90
5128;DHT22;2582;48.770;9.190;2022-12-07T09:03:42;6.50;99.90
5128;DHT22;2582;48.770;9.190;2022-12-07T09:06:08;6.70;99.90
5128;DHT22;2582;48.770;9.190;2022-12-07T09:08:37;6.80;99.90
5128;DHT22;2582;48.770;9.190;2022-12-07T09:11:04;7.00;99.90
5128;DHT22;2582;48.770;9.190;2022-12-07T09:13:29;7.10;99.90
5128;DHT22;2582;48.770;9.190;2022-12-07T09:15:55;7.00;99.90
5128;DHT22;2582;48.770;9.190;2022-12-07T09:18:21;7.10;99.90
5128;DHT22;2582;48.770;9.190;2022-12-07T09:20:47;7.20;99.90
5128;DHT22;2582;48.770;9.190;2022-12-07T09:23:12;7.10;99.90
5128;DHT22;2582;48.770;9.190;2022-12-07T09:25:38;7.10;99.90
5128;DHT22;2582;48.770;9.190;2022-12-07T09:28:03;7.10;99.90
5128;DHT22;2582;48.770;9.190;2022-12-07T09:30:29;7.10;99.90
5128;DHT22;2582;48.770;9.190;2022-12-07T09:32:56;7.20;99.90
5128;DHT22;2582;48.770;9.190;2022-12-07T09:35:22;7.20;99.90
5128;DHT22;2582;48.770;9.190;2022-12-07T09:37:48;7.10;99.90
5128;DHT22;2582;48.770;9.190;2022-12-07T09:40:15;7.20;99.90
5128;DHT22;2582;48.770;9.190;2022-12-07T09:42:45;7.40;99.90
5128;DHT22;2582;48.770;9.190;2022-12-07T09:45:33;7.10;99.90
5128;DHT22;2582;48.770;9.190;2022-12-07T09:47:59;7.00;99.90
5128;DHT22;2582;48.770;9.190;2022-12-07T09:50:27;7.10;99.90
5128;DHT22;2582;48.770;9.190;2022-12-07T09:53:00;7.20;99.90
5128;DHT22;2582;48.770;9.190;2022-12-07T09:55:29;7.30;99.90
5128;DHT22;2582;48.770;9.190;2022-12-07T09:57:57;7.20;99.90
5128;DHT22;2582;48.770;9.190;2022-12-07T10:00:24;7.20;99.90
5128;DHT22;2582;48.770;9.190;2022-12-07T10:02:59;7.20;99.90
5128;DHT22;2582;48.770;9.190;2022-12-07T10:05:30;7.50;99.90
5128;DHT22;2582;48.770;9.190;2022-12-07T10:07:57;7.60;99.90
5128;DHT22;2582;48.770;9.190;2022-12-07T10:10:26;7.40;99.90
5128;DHT22;2582;48.770;9.190;2022-12-07T10:12:57;7.40;99.90
5128;DHT22;2582;48.770;9.190;2022-12-07T10:15:44;7.30;99.90
5128;DHT22;2582;48.770;9.190;2022-12-07T10:18:24;7.00;99.90
5128;DHT22;2582;48.770;9.190;2022-12-07T10:21:09;7.20;99.90
5128;DHT22;2582;48.770;9.190;2022-12-07T10:23:37;7.60;99.90
5128;DHT22;2582;48.770;9.190;2022-12-07T10:31:44;7.60;99.90
5128;DHT22;2582;48.770;9.190;2022-12-07T10:34:27;7.60;99.90
5128;DHT22;2582;48.770;9.190;2022-12-07T10:39:46;7.50;99.90
5128;DHT22;2582;48.770;9.190;2022-12-07T10:42:21;7.60;99.90
5128;DHT22;2582;48.770;9.190;2022-12-07T10:44:48;7.70;99.90
5128;DHT22;2582;48.770;9.190;2022-12-07T10:47:36;7.60;99.90
5128;DHT22;2582;48.770;9.190;2022-12-07T10:53:25;7.80;99.90
5128;DHT22;2582;48.770;9.190;2022-12-07T11:01:27;7.70;99.90
5128;DHT22;2582;48.770;9.190;2022-12-07T11:04:31;7.70;99.90
5128;DHT22;2582;48.770;9.190;2022-12-07T11:07:18;7.40;99.90
5128;DHT22;2582;48.770;9.190;2022-12-07T11:09:59;7.30;99.90
5128;DHT22;2582;48.770;9.190;2022-12-07T11:12:53;7.40;99.90
5128;DHT22;2582;48.770;9.190;2022-12-07T11:15:46;7.70;99.90
5128;DHT22;2582;48.770;9.190;2022-12-07T11:18:29;7.60;99.90
5128;DHT22;2582;48.770;9.190;2022-12-07T11:21:30;7.60;99.90
5128;DHT22;2582;48.770;9.190;2022-12-07T11:24:20;7.80;99.90
5128;DHT22;2582;48.770;9.190;2022-12-07T11:27:12;7.90;99.90
5128;DHT22;2582;48.770;9.190;2022-12-07T11:38:19;7.90;99.90
5128;DHT22;2582;48.770;9.190;2022-12-07T11:40:50;7.90;99.90
5128;DHT22;2582;48.770;9.190;2022-12-07T11:45:46;8.10;99.90
5128;DHT22;2582;48.770;9.190;2022-12-07T11:51:09;8.10;99.90
5128;DHT22;2582;48.770;9.190;2022-12-07T11:53:39;8.00;99.90
5128;DHT22;2582;48.770;9.190;2022-12-07T11:56:19;8.00;99.90
5128;DHT22;2582;48.770;9.190;2022-12-07T12:03:54;7.60;99.90
5128;DHT22;2582;48.770;9.190;2022-12-07T12:06:20;7.60;99.90
5128;DHT22;2582;48.770;9.190;2022-12-07T12:09:00;7.20;99.90
5128;DHT22;2582;48.770;9.190;2022-12-07T12:16:56;6.80;99.90
5128;DHT22;2582;48.770;9.190;2022-12-07T12:19:27;6.90;99.90
5128;DHT22;2582;48.770;9.190;2022-12-07T12:22:06;6.70;99.90
5128;DHT22;2582;48.770;9.190;2022-12-07T12:24:34;6.60;99.90
5128;DHT22;2582;48.770;9.190;2022-12-07T12:27:17;6.60;99.90
5128;DHT22;2582;48.770;9.190;2022-12-07T12:29:44;6.60;99.90
5128;DHT22;2582;48.770;9.190;2022-12-07T12:32:21;6.70;99.90
5128;DHT22;2582;48.770;9.190;2022-12-07T12:37:40;6.60;99.90
5128;DHT22;2582;48.770;9.190;2022-12-07T12:42:57;6.70;99.90
5128;DHT22;2582;48.770;9.190;2022-12-07T12:47:55;6.70;99.90
5128;DHT22;2582;48.770;9.190;2022-12-07T12:52:54;6.80;99.90
5128;DHT22;2582;48.770;9.190;2022-12-07T13:00:48;6.90;99.90
5128;DHT22;2582;48.770;9.190;2022-12-07T13:03:33;7.00;99.90
5128;DHT22;2582;48.770;9.190;2022-12-07T13:08:50;7.00;99.90
5128;DHT22;2582;48.770;9.190;2022-12-07T13:11:28;6.90;99.90
5128;DHT22;2582;48.770;9.190;2022-12-07T13:19:56;6.80;99.90
5128;DHT22;2582;48.770;9.190;2022-12-07T13:25:08;6.90;99.90
5128;DHT22;2582;48.770;9.190;2022-12-07T13:27:40;7.00;99.90
5128;DHT22;2582;48.770;9.190;2022-12-07T13:30:18;6.90;99.90
5128;DHT22;2582;48.770;9.190;2022-12-07T13:32:52;6.90;99.90
5128;DHT22;2582;48.770;9.190;2022-12-07T13:35:38;6.90;99.90
5128;DHT22;2582;48.770;9.190;2022-12-07T13:38:28;6.90;99.90
5128;DHT22;2582;48.770;9.190;2022-12-07T13:43:44;6.90;99.90
5128;DHT22;2582;48.770;9.190;2022-12-07T13:46:11;7.00;99.90
5128;DHT22;2582;48.770;9.190;2022-12-07T13:48:47;7.00;99.90
5128;DHT22;2582;48.770;9.190;2022-12-07T13:51:22;7.10;99.90
5128;DHT22;2582;48.770;9.190;2022-12-07T13:53:50;7.10;99.90
5128;DHT22;2582;48.770;9.190;2022-12-07T13:56:16;7.00;99.90
5128;DHT22;2582;48.770;9.190;2022-12-07T13:58:42;6.90;99.90
5128;DHT22;2582;48.770;9.190;2022-12-07T14:01:08;6.90;99.90
5128;DHT22;2582;48.770;9.190;2022-12-07T14:03:35;6.80;99.90
5128;DHT22;2582;48.770;9.190;2022-12-07T14:06:07;7.00;99.90
5128;DHT22;2582;48.770;9.190;2022-12-07T14:08:33;7.00;99.90
5128;DHT22;2582;48.770;9.190;2022-12-07T14:10:59;7.00;99.90
5128;DHT22;2582;48.770;9.190;2022-12-07T14:13:35;7.00;99.90
5128;DHT22;2582;48.770;9.190;2022-12-07T14:16:02;7.00;99.90
5128;DHT22;2582;48.770;9.190;2022-12-07T14:23:37;7.00;99.90
5128;DHT22;2582;48.770;9.190;2022-12-07T14:26:18;7.00;99.90
5128;DHT22;2582;48.770;9.190;2022-12-07T14:28:44;7.10;99.90
5128;DHT22;2582;48.770;9.190;2022-12-07T14:31:16;7.40;99.90
5128;DHT22;2582;48.770;9.190;2022-12-07T14:33:42;7.10;99.90
5128;DHT22;2582;48.770;9.190;2022-12-07T14:36:12;7.00;99.90
5128;DHT22;2582;48.770;9.190;2022-12-07T14:38:38;6.90;99.90
5128;DHT22;2582;48.770;9.190;2022-12-07T14:41:06;7.10;99.90
5128;DHT22;2582;48.770;9.190;2022-12-07T14:43:54;7.30;99.90
5128;DHT22;2582;48.770;9.190;2022-12-07T14:46:19;7.20;99.90
5128;DHT22;2582;48.770;9.190;2022-12-07T14:48:45;7.10;99.90
5128;DHT22;2582;48.770;9.190;2022-12-07T14:51:12;7.20;99.90
5128;DHT22;2582;48.770;9.190;2022-12-07T14:53:41;7.20;99.90
5128;DHT22;2582;48.770;9.190;2022-12-07T14:56:07;7.00;99.90
5128;DHT22;2582;48.770;9.190;2022-12-07T14:58:33;7.00;99.90
5128;DHT22;2582;48.770;9.190;2022-12-07T15:00:59;7.00;99.90
5128;DHT22;2582;48.770;9.190;2022-12-07T15:03:25;7.00;99.90
5128;DHT22;2582;48.770;9.190;2022-12-07T15:05:51;7.00;99.90
5128;DHT22;2582;48.770;9.190;2022-12-07T15:08:16;7.10;99.90
5128;DHT22;2582;48.770;9.190;2022-12-07T15:10:43;6.90;99.90
5128;DHT22;2582;48.770;9.190;2022-12-07T15:13:08;6.90;99.90
5128;DHT22;2582;48.770;9.190;2022-12-07T15:15:53;6.80;99.90
5128;DHT22;2582;48.770;9.190;2022-12-07T15:18:20;6.90;99.90
5128;DHT22;2582;48.770;9.190;2022-12-07T15:20:46;6.80;99.90
5128;DHT22;2582;48.770;9.190;2022-12-07T15:23:12;6.90;99.90
5128;DHT22;2582;48.770;9.190;2022-12-07T15:25:47;6.90;99.90
5128;DHT22;2582;48.770;9.190;2022-12-07T15:28:13;6.70;99.90
5128;DHT22;2582;48.770;9.190;2022-12-07T15:30:41;6.70;99.90
5128;DHT22;2582;48.770;9.190;2022-12-07T15:33:08;6.70;99.90
5128;DHT22;2582;48.770;9.190;2022-12-07T15:35:33;6.50;99.90
5128;DHT22;2582;48.770;9.190;2022-12-07T15:37:59;6.30;99.90
5128;DHT22;2582;48.770;9.190;2022-12-07T15:40:24;6.40;99.90
5128;DHT22;2582;48.770;9.190;2022-12-07T15:42:50;6.60;99.90
5128;DHT22;2582;48.770;9.190;2022-12-07T15:45:15;6.60;99.90
5128;DHT22;2582;48.770;9.190;2022-12-07T15:47:42;6.50;99.90
5128;DHT22;2582;48.770;9.190;2022-12-07T15:50:14;6.50;99.90
5128;DHT22;2582;48.770;9.190;2022-12-07T15:52:39;6.40;99.90
5128;DHT22;2582;48.770;9.190;2022-12-07T15:55:06;6.20;99.90
5128;DHT22;2582;48.770;9.190;2022-12-07T15:57:33;6.20;99.90
5128;DHT22;2582;48.770;9.190;2022-12-07T15:59:59;6.10;99.90
5128;DHT22;2582;48.770;9.190;2022-12-07T16:02:25;6.30;99.90
5128;DHT22;2582;48.770;9.190;2022-12-07T16:04:51;6.20;99.90
5128;DHT22;2582;48.770;9.190;2022-12-07T16:07:17;6.30;99.90
5128;DHT22;2582;48.770;9.190;2022-12-07T16:09:44;6.20;99.90
5128;DHT22;2582;48.770;9.190;2022-12-07T16:12:11;6.10;99.90
5128;DHT22;2582;48.770;9.190;2022-12-07T16:14:38;6.00;99.90
5128;DHT22;2582;48.770;9.190;2022-12-07T16:17:04;6.20;99.90
5128;DHT22;2582;48.770;9.190;2022-12-07T16:19:31;6.30;99.90
5128;DHT22;2582;48.770;9.190;2022-12-07T16:21:57;6.50;99.90
5128;DHT22;2582;48.770;9.190;2022-12-07T16:24:22;6.30;99.90
5128;DHT22;2582;48.770;9.190;2022-12-07T16:26:49;6.20;99.90
5128;DHT22;2582;48.770;9.190;2022-12-07T16:29:15;5.90;99.90
5128;DHT22;2582;48.770;9.190;2022-12-07T16:31:41;6.10;99.90
5128;DHT22;2582;48.770;9.190;2022-12-07T16:34:07;6.30;99.90
5128;DHT22;2582;48.770;9.190;2022-12-07T16:36:32;6.10;99.90
5128;DHT22;2582;48.770;9.190;2022-12-07T16:38:59;6.20;99.90
5128;DHT22;2582;48.770;9.190;2022-12-07T16:41:24;6.10;99.90
5128;DHT22;2582;48.770;9.190;2022-12-07T16:43:50;6.10;99.90
5128;DHT22;2582;48.770;9.190;2022-12-07T16:46:16;6.20;99.90
5128;DHT22;2582;48.770;9.190;2022-12-07T16:48:42;6.40;99.90
5128;DHT22;2582;48.770;9.190;2022-12-07T16:51:09;6.40;99.90
5128;DHT22;2582;48.770;9.190;2022-12-07T16:53:36;6.40;99.90
5128;DHT22;2582;48.770;9.190;2022-12-07T16:56:02;6.20;99.90
5128;DHT22;2582;48.770;9.190;2022-12-07T16:58:28;6.20;99.90
5128;DHT22;2582;48.770;9.190;2022-12-07T17:00:53;6.30;99.90
5128;DHT22;2582;48.770;9.190;2022-12-07T17:03:19;6.40;99.90
5128;DHT22;2582;48.770;9.190;2022-12-07T17:05:45;6.20;99.90
5128;DHT22;2582;48.770;9.190;2022-12-07T17:08:12;6.10;99.90
5128;DHT22;2582;48.770;9.190;2022-12-07T17:10:41;5.90;99.90
5128;DHT22;2582;48.770;9.190;2022-12-07T17:13:07;6.00;99.90
5128;DHT22;2582;48.770;9.190;2022-12-07T17:18:21;6.20;99.90
5128;DHT22;2582;48.770;9.190;2022-12-07T17:20:47;6.20;99.90
5128;DHT22;2582;48.770;9.190;2022-12-07T17:23:13;6.20;99.90
5128;DHT22;2582;48.770;9.190;2022-12-07T17:25:38;6.00;99.90
5128;DHT22;2582;48.770;9.190;2022-12-07T17:28:04;6.10;99.90
5128;DHT22;2582;48.770;9.190;2022-12-07T17:30:29;6.10;99.90
5128;DHT22;2582;48.770;9.190;2022-12-07T17:32:55;5.90;99.90
5128;DHT22;2582;48.770;9.190;2022-12-07T17:35:20;6.10;99.90
5128;DHT22;2582;48.770;9.190;2022-12-07T17:37:46;6.10;99.90
5128;DHT22;2582;48.770;9.190;2022-12-07T17:40:12;6.20;99.90
5128;DHT22;2582;48.770;9.190;2022-12-07T17:42:38;6.20;99.90
5128;DHT22;2582;48.770;9.190;2022-12-07T17:45:09;6.10;99.90
5128;DHT22;2582;48.770;9.190;2022-12-07T17:47:36;6.10;99.90
5128;DHT22;2582;48.770;9.190;2022-12-07T17:50:03;6.10;99.90
5128;DHT22;2582;48.770;9.190;2022-12-07T17:52:30;6.10;99.90
5128;DHT22;2582;48.770;9.190;2022-12-07T17:55:14;6.10;99.90
5128;DHT22;2582;48.770;9.190;2022-12-07T17:57:39;6.10;99.90
5128;DHT22;2582;48.770;9.190;2022-12-07T18:00:06;6.20;99.90
5128;DHT22;2582;48.770;9.190;2022-12-07T18:02:31;6.30;99.90
5128;DHT22;2582;48.770;9.190;2022-12-07T18:04:57;6.30;99.90
5128;DHT22;2582;48.770;9.190;2022-12-07T18:07:23;6.20;99.90
5128;DHT22;2582;48.770;9.190;2022-12-07T18:09:48;6.20;99.90
5128;DHT22;2582;48.770;9.190;2022-12-07T18:12:14;6.20;99.90
5128;DHT22;2582;48.770;9.190;2022-12-07T18:14:39;6.20;99.90
5128;DHT22;2582;48.770;9.190;2022-12-07T18:17:05;6.00;99.90
5128;DHT22;2582;48.770;9.190;2022-12-07T18:19:31;6.20;99.90
5128;DHT22;2582;48.770;9.190;2022-12-07T18:21:57;6.20;99.90
5128;DHT22;2582;48.770;9.190;2022-12-07T18:24:23;6.20;99.90
5128;DHT22;2582;48.770;9.190;2022-12-07T18:26:48;6.00;99.90